Time;durP1;ratioP1;P1;durP2;ratioP2;P2;SDS_P1;SDS_P2;PMS_P1;PMS_P2;Temp;Humidity;BMP_temperature;BMP_pressure;BME280_temperature;BME280_humidity;BME280_pressure;Samples;Min_cycle;Max_cycle;Signal;HPM_P1;HPM_P2
2022/05/27 00:02:02;;;;;;;3.53;3.23;;;18.90;99.90;;;;;;5054953;28;20414;-72
2022/05/27 00:04:30;;;;;;;4.30;3.90;;;18.90;99.90;;;;;;5055196;28;20487;-74
2022/05/27 00:06:56;;;;;;;3.73;3.43;;;18.90;99.90;;;;;;5054934;28;20498;-72
2022/05/27 00:09:25;;;;;;;3.50;3.20;;;18.90;99.90;;;;;;5057409;28;20488;-75
2022/05/27 00:11:52;;;;;;;3.77;3.33;;;19.00;99.90;;;;;;5059070;28;20415;-74
2022/05/27 00:14:19;;;;;;;3.87;3.57;;;18.90;99.90;;;;;;5058687;28;20537;-73
2022/05/27 00:16:47;;;;;;;3.70;3.40;;;18.90;99.90;;;;;;5058609;28;20432;-75
2022/05/27 00:19:13;;;;;;;4.10;3.70;;;18.80;99.90;;;;;;5058566;28;20536;-72
2022/05/27 00:21:39;;;;;;;3.80;3.50;;;18.80;99.90;;;;;;5058482;28;20552;-72
2022/05/27 00:24:07;;;;;;;3.73;3.43;;;18.80;99.90;;;;;;5058280;28;20457;-75
2022/05/27 00:26:37;;;;;;;4.23;3.10;;;18.70;99.90;;;;;;5058317;28;20501;-74
2022/05/27 00:29:05;;;;;;;3.67;3.37;;;18.70;99.90;;;;;;5058145;28;20485;-75
2022/05/27 00:31:32;;;;;;;4.30;3.30;;;18.60;99.90;;;;;;5058346;28;20938;-72
2022/05/27 00:33:58;;;;;;;3.33;3.03;;;18.60;99.90;;;;;;5058174;28;20552;-72
2022/05/27 00:36:24;;;;;;;3.73;3.43;;;18.60;99.90;;;;;;5058167;28;20505;-72
2022/05/27 00:38:54;;;;;;;5.23;4.20;;;18.50;99.90;;;;;;5057938;28;20772;-72
2022/05/27 00:41:26;;;;;;;3.70;3.40;;;18.50;99.90;;;;;;5091792;28;20929;-75
2022/05/27 00:43:53;;;;;;;4.03;3.73;;;18.50;99.90;;;;;;5058162;28;20438;-75
2022/05/27 00:46:23;;;;;;;4.40;4.00;;;18.40;99.90;;;;;;5091767;28;20487;-75
2022/05/27 00:48:55;;;;;;;4.57;3.70;;;18.40;99.90;;;;;;5058008;28;20494;-72
2022/05/27 00:51:26;;;;;;;4.33;3.93;;;18.30;99.90;;;;;;5058198;28;20466;-72
2022/05/27 00:54:06;;;;;;;3.70;3.40;;;18.30;99.90;;;;;;5057939;28;20793;-72
2022/05/27 00:56:39;;;;;;;3.80;3.50;;;18.20;99.90;;;;;;5057734;28;20789;-72
2022/05/27 00:59:18;;;;;;;5.57;3.90;;;18.20;99.90;;;;;;5057770;28;20461;-74
2022/05/27 01:01:45;;;;;;;3.57;3.27;;;18.10;99.90;;;;;;5057922;28;20461;-72
2022/05/27 01:04:11;;;;;;;3.90;3.27;;;18.10;99.90;;;;;;5057633;28;20454;-72
2022/05/27 01:06:38;;;;;;;3.93;3.53;;;18.00;99.90;;;;;;5075784;28;20435;-72
2022/05/27 01:09:06;;;;;;;3.77;3.47;;;18.00;99.90;;;;;;5091158;28;20481;-72
2022/05/27 01:12:06;;;;;;;3.60;3.30;;;17.90;99.90;;;;;;5075731;28;20413;-72
2022/05/27 01:14:43;;;;;;;6.43;3.93;;;17.90;99.90;;;;;;5057696;28;20460;-72
2022/05/27 01:17:31;;;;;;;3.90;3.50;;;17.90;99.90;;;;;;5057553;28;20428;-72
2022/05/27 01:20:18;;;;;;;4.80;3.90;;;17.90;99.90;;;;;;5040071;28;20512;-75
2022/05/27 01:22:56;;;;;;;4.40;4.00;;;17.80;99.90;;;;;;5056616;28;20414;-74
2022/05/27 01:25:25;;;;;;;5.80;4.30;;;17.80;99.90;;;;;;5057198;28;20491;-75
2022/05/27 01:28:30;;;;;;;4.10;3.80;;;17.80;99.90;;;;;;5057400;28;20445;-75
2022/05/27 01:31:20;;;;;;;3.83;3.53;;;17.70;99.90;;;;;;5057063;28;20489;-72
2022/05/27 01:34:03;;;;;;;4.37;3.97;;;17.70;99.90;;;;;;5057136;28;20449;-75
2022/05/27 01:36:53;;;;;;;4.67;3.97;;;17.60;99.90;;;;;;5057409;28;20414;-72
2022/05/27 01:39:45;;;;;;;4.20;3.80;;;17.60;99.90;;;;;;5057111;28;20868;-72
2022/05/27 01:42:20;;;;;;;7.03;3.80;;;17.60;99.90;;;;;;5075400;28;20452;-72
2022/05/27 01:44:54;;;;;;;5.13;4.23;;;17.50;99.90;;;;;;5056920;28;20485;-72
2022/05/27 01:47:56;;;;;;;4.30;3.90;;;17.50;99.90;;;;;;5057028;28;20471;-72
2022/05/27 01:50:37;;;;;;;5.33;4.57;;;17.50;99.90;;;;;;5046083;28;20494;-72
2022/05/27 01:53:07;;;;;;;4.03;3.50;;;17.50;99.90;;;;;;5036903;28;20492;-74
2022/05/27 01:55:43;;;;;;;4.40;3.97;;;17.40;99.90;;;;;;5037014;28;20477;-73
2022/05/27 01:58:47;;;;;;;4.47;4.07;;;17.40;99.90;;;;;;5036635;28;20512;-72
2022/05/27 02:01:20;;;;;;;5.73;4.53;;;17.40;99.90;;;;;;4957777;28;20426;-72
2022/05/27 02:03:53;;;;;;;3.90;3.60;;;17.40;99.90;;;;;;5026165;28;20438;-74
2022/05/27 02:06:49;;;;;;;4.33;3.93;;;17.40;99.90;;;;;;5036732;28;20533;-72
2022/05/27 02:09:27;;;;;;;4.70;4.30;;;17.40;99.90;;;;;;5034643;28;20482;-75
2022/05/27 02:12:02;;;;;;;3.87;3.50;;;17.30;99.90;;;;;;5036811;28;20411;-75
2022/05/27 02:14:56;;;;;;;4.73;4.27;;;17.30;99.90;;;;;;5036824;28;20533;-75
2022/05/27 02:18:01;;;;;;;4.47;4.10;;;17.30;99.90;;;;;;5036721;28;20430;-72
2022/05/27 02:20:41;;;;;;;3.90;3.60;;;17.20;99.90;;;;;;5035915;28;20446;-75
2022/05/27 02:23:38;;;;;;;4.87;4.37;;;17.20;99.90;;;;;;5036285;28;20454;-72
2022/05/27 02:26:11;;;;;;;5.70;5.17;;;17.20;99.90;;;;;;5036384;28;21006;-75
2022/05/27 02:28:43;;;;;;;5.13;4.57;;;17.10;99.90;;;;;;5036133;28;20431;-75
2022/05/27 02:31:24;;;;;;;4.57;3.83;;;17.10;99.90;;;;;;5035934;28;20415;-72
2022/05/27 02:36:51;;;;;;;4.37;4.00;;;17.10;99.90;;;;;;5055226;28;20453;-75
2022/05/27 02:39:17;;;;;;;5.07;4.57;;;17.10;99.90;;;;;;5036850;28;20899;-72
2022/05/27 02:42:16;;;;;;;5.20;4.20;;;17.10;99.90;;;;;;5036797;28;20429;-72
2022/05/27 02:45:06;;;;;;;4.70;4.23;;;17.10;99.90;;;;;;5027784;28;20515;-75
2022/05/27 02:47:57;;;;;;;4.80;4.30;;;17.10;99.90;;;;;;5036012;28;20411;-72
2022/05/27 02:50:41;;;;;;;4.50;4.10;;;17.10;99.90;;;;;;5035869;28;20478;-72
2022/05/27 02:53:33;;;;;;;5.23;4.07;;;17.00;99.90;;;;;;5036201;28;20454;-73
2022/05/27 02:56:17;;;;;;;5.40;4.07;;;17.00;99.90;;;;;;5053689;28;20496;-75
2022/05/27 02:58:44;;;;;;;5.47;4.47;;;17.00;99.90;;;;;;5036128;28;20560;-75
2022/05/27 03:01:10;;;;;;;5.20;4.33;;;17.00;99.90;;;;;;5035760;28;20419;-72
2022/05/27 03:03:41;;;;;;;4.63;4.20;;;16.90;99.90;;;;;;5035751;28;20427;-74
2022/05/27 03:06:25;;;;;;;8.10;4.60;;;16.90;99.90;;;;;;5027804;28;20419;-71
2022/05/27 03:09:14;;;;;;;5.03;4.27;;;16.90;99.90;;;;;;5035606;28;20430;-72
2022/05/27 03:12:07;;;;;;;5.07;4.57;;;16.90;99.90;;;;;;5035872;28;20549;-74
2022/05/27 03:14:44;;;;;;;4.37;3.97;;;16.90;99.90;;;;;;5035944;28;20478;-72
2022/05/27 03:17:32;;;;;;;4.67;4.27;;;16.90;99.90;;;;;;5053754;28;20422;-71
2022/05/27 03:20:27;;;;;;;4.53;4.13;;;16.90;99.90;;;;;;5035772;28;20466;-75
2022/05/27 03:22:56;;;;;;;4.97;4.47;;;17.00;99.90;;;;;;5035802;28;20427;-72
2022/05/27 03:25:47;;;;;;;4.97;4.37;;;17.00;99.90;;;;;;5035667;28;20825;-74
2022/05/27 03:28:38;;;;;;;4.70;4.30;;;17.00;99.90;;;;;;5035554;28;20447;-71
2022/05/27 03:31:36;;;;;;;5.70;4.03;;;17.10;99.90;;;;;;5035723;28;20470;-72
2022/05/27 03:34:06;;;;;;;4.73;4.30;;;17.10;99.90;;;;;;5016563;28;20465;-72
2022/05/27 03:37:18;;;;;;;9.00;5.10;;;17.10;99.90;;;;;;5035362;28;20426;-74
2022/05/27 03:39:50;;;;;;;4.27;3.87;;;17.10;99.90;;;;;;4989773;28;20450;-72
2022/05/27 03:42:19;;;;;;;4.77;4.37;;;17.10;99.90;;;;;;5036333;28;20410;-75
2022/05/27 03:45:09;;;;;;;6.17;4.57;;;17.10;99.90;;;;;;5039531;28;20451;-72
2022/05/27 03:47:37;;;;;;;5.30;4.73;;;17.20;99.90;;;;;;5039415;28;20418;-74
2022/05/27 03:50:06;;;;;;;6.57;5.97;;;17.20;99.90;;;;;;5039116;28;20528;-72
2022/05/27 03:52:42;;;;;;;5.00;4.60;;;17.20;99.90;;;;;;5039711;28;20414;-74
2022/05/27 03:55:12;;;;;;;4.30;3.90;;;17.20;99.90;;;;;;5038323;28;20477;-74
2022/05/27 03:57:38;;;;;;;5.10;4.57;;;17.30;99.90;;;;;;5038852;28;20505;-72
2022/05/27 04:00:06;;;;;;;5.13;4.50;;;17.30;99.90;;;;;;5071794;28;20541;-72
2022/05/27 04:02:40;;;;;;;5.50;5.00;;;17.40;99.90;;;;;;5038372;28;20415;-75
2022/05/27 04:05:10;;;;;;;6.60;5.30;;;17.40;99.90;;;;;;5056702;28;20437;-74
2022/05/27 04:07:36;;;;;;;4.60;4.13;;;17.50;99.90;;;;;;5038901;28;20812;-74
2022/05/27 04:10:08;;;;;;;5.93;5.33;;;17.50;99.90;;;;;;5071823;28;20482;-74
2022/05/27 04:12:36;;;;;;;4.57;4.17;;;17.60;99.90;;;;;;5038494;28;20422;-72
2022/05/27 04:15:03;;;;;;;5.07;4.47;;;17.60;99.90;;;;;;5037091;28;20458;-71
2022/05/27 04:17:31;;;;;;;5.17;4.67;;;17.60;99.90;;;;;;5036476;28;20468;-74
2022/05/27 04:20:09;;;;;;;11.87;4.97;;;17.60;99.90;;;;;;5036422;28;21097;-72
2022/05/27 04:22:35;;;;;;;4.80;4.40;;;17.60;99.90;;;;;;5036591;28;20512;-74
2022/05/27 04:25:05;;;;;;;3.90;3.50;;;17.60;99.90;;;;;;5036662;28;20457;-74
2022/05/27 04:27:33;;;;;;;5.73;4.77;;;17.60;99.90;;;;;;5036442;28;20411;-74
2022/05/27 04:30:02;;;;;;;6.77;4.67;;;17.60;99.90;;;;;;5037348;28;20474;-74
2022/05/27 04:32:29;;;;;;;5.13;4.70;;;17.50;99.90;;;;;;5038428;28;20422;-71
2022/05/27 04:34:59;;;;;;;4.93;4.43;;;17.60;99.90;;;;;;5038302;28;20458;-74
2022/05/27 04:37:28;;;;;;;7.80;4.97;;;17.60;99.90;;;;;;5038359;28;20447;-74
2022/05/27 04:39:54;;;;;;;4.70;4.30;;;17.60;99.90;;;;;;5038464;28;20458;-74
2022/05/27 04:42:23;;;;;;;5.50;4.43;;;17.60;99.90;;;;;;5071661;28;20505;-74
2022/05/27 04:44:51;;;;;;;4.57;4.00;;;17.70;99.90;;;;;;5038426;28;21070;-71
2022/05/27 04:47:19;;;;;;;5.73;4.30;;;17.70;99.90;;;;;;5038239;28;20527;-74
2022/05/27 04:49:51;;;;;;;8.03;5.23;;;17.80;99.90;;;;;;5037858;28;20907;-72
2022/05/27 04:52:23;;;;;;;4.87;4.23;;;17.80;99.90;;;;;;5071485;28;20418;-74
2022/05/27 04:54:50;;;;;;;4.50;3.97;;;17.90;99.90;;;;;;5033223;28;21063;-71
2022/05/27 04:57:21;;;;;;;4.53;4.10;;;18.00;99.90;;;;;;5016104;28;20416;-74
2022/05/27 04:59:50;;;;;;;9.10;4.40;;;18.10;99.90;;;;;;5025510;28;20565;-72
2022/05/27 05:02:20;;;;;;;4.30;3.90;;;18.20;99.90;;;;;;5040877;28;20788;-71
2022/05/27 05:04:51;;;;;;;4.47;3.83;;;18.20;99.90;;;;;;5049543;28;20462;-74
2022/05/27 05:07:22;;;;;;;4.30;3.97;;;18.30;99.90;;;;;;5033974;28;20421;-74
2022/05/27 05:09:50;;;;;;;5.10;4.60;;;18.40;99.90;;;;;;5039747;28;20493;-72
2022/05/27 05:12:27;;;;;;;5.70;4.50;;;18.50;99.90;;;;;;5030904;28;20791;-73
2022/05/27 05:14:54;;;;;;;5.47;4.70;;;18.60;99.90;;;;;;5048006;28;20979;-73
2022/05/27 05:17:21;;;;;;;4.77;4.03;;;18.70;99.90;;;;;;5034338;28;20426;-71
2022/05/27 05:19:48;;;;;;;5.33;4.37;;;18.80;99.90;;;;;;5032148;28;20467;-71
2022/05/27 05:22:15;;;;;;;15.03;11.00;;;18.90;99.90;;;;;;5035396;28;20434;-72
2022/05/27 05:24:45;;;;;;;9.07;6.07;;;19.00;99.90;;;;;;5034587;28;20749;-73
2022/05/27 05:27:11;;;;;;;5.17;4.67;;;19.10;99.90;;;;;;5073475;28;20402;-72
2022/05/27 05:29:37;;;;;;;5.50;4.17;;;19.20;99.90;;;;;;5041126;28;20502;-72
2022/05/27 05:32:05;;;;;;;6.23;5.63;;;19.30;99.90;;;;;;5034724;28;20413;-72
2022/05/27 05:34:34;;;;;;;5.67;4.53;;;19.40;99.90;;;;;;5032971;28;20210;-72
2022/05/27 05:37:04;;;;;;;6.97;4.77;;;19.50;99.90;;;;;;5033802;28;20514;-72
2022/05/27 05:39:30;;;;;;;5.73;4.03;;;19.60;99.90;;;;;;5052373;28;20430;-73
2022/05/27 05:42:01;;;;;;;8.23;4.83;;;19.70;99.90;;;;;;5037200;28;20825;-73
2022/05/27 05:44:33;;;;;;;5.23;4.53;;;19.80;99.90;;;;;;5055425;28;20452;-75
2022/05/27 05:47:00;;;;;;;6.33;4.97;;;19.80;99.90;;;;;;5056522;28;20421;-75
2022/05/27 05:49:26;;;;;;;5.27;4.77;;;20.00;99.90;;;;;;5035384;28;20489;-75
2022/05/27 05:51:54;;;;;;;7.27;4.73;;;20.10;99.90;;;;;;5053522;28;20466;-72
2022/05/27 05:54:23;;;;;;;5.33;4.83;;;20.20;99.90;;;;;;5061144;28;20468;-76
2022/05/27 05:56:53;;;;;;;5.83;4.87;;;20.20;99.90;;;;;;5057442;28;20845;-75
2022/05/27 05:59:22;;;;;;;5.17;4.67;;;20.30;99.90;;;;;;5065623;28;20476;-71
2022/05/27 06:01:50;;;;;;;7.40;5.77;;;20.40;99.90;;;;;;5064410;28;20559;-73
2022/05/27 06:04:23;;;;;;;5.03;4.53;;;20.50;99.90;;;;;;5057724;28;20829;-71
2022/05/27 06:06:53;;;;;;;8.27;5.70;;;20.50;99.90;;;;;;5052763;28;20416;-73
2022/05/27 06:09:25;;;;;;;5.00;4.57;;;20.60;99.90;;;;;;5053818;28;20488;-73
2022/05/27 06:11:53;;;;;;;6.63;5.23;;;20.70;99.90;;;;;;5050515;28;20441;-74
2022/05/27 06:14:20;;;;;;;4.40;4.00;;;20.80;99.90;;;;;;5050078;28;20684;-73
2022/05/27 06:16:52;;;;;;;5.10;4.60;;;20.80;99.90;;;;;;5051527;28;20432;-73
2022/05/27 06:19:18;;;;;;;6.03;5.43;;;20.90;99.90;;;;;;5052759;28;20490;-73
2022/05/27 06:21:44;;;;;;;6.83;4.63;;;21.00;99.90;;;;;;5051930;28;20420;-71
2022/05/27 06:24:10;;;;;;;11.10;5.13;;;21.10;99.90;;;;;;5052459;28;20429;-71
2022/05/27 06:26:42;;;;;;;4.60;4.20;;;21.10;99.90;;;;;;5081159;28;20192;-71
2022/05/27 06:34:41;;;;;;;4.70;4.00;;;21.40;99.90;;;;;;5078032;28;20432;-74
2022/05/27 06:37:14;;;;;;;4.07;3.63;;;21.50;99.90;;;;;;5054525;28;20472;-73
2022/05/27 06:39:41;;;;;;;3.30;2.97;;;21.60;99.90;;;;;;5054790;28;20541;-73
2022/05/27 06:42:10;;;;;;;3.67;3.30;;;21.70;99.90;;;;;;5059309;28;20447;-71
2022/05/27 06:44:41;;;;;;;4.37;3.97;;;21.80;99.90;;;;;;5073126;28;20449;-73
2022/05/27 06:47:13;;;;;;;3.50;3.00;;;21.90;99.90;;;;;;5045404;28;20451;-74
2022/05/27 06:49:51;;;;;;;3.27;2.70;;;22.00;99.90;;;;;;5049381;28;21003;-72
2022/05/27 06:52:56;;;;;;;6.30;2.50;;;22.10;99.90;;;;;;5034067;28;20438;-72
2022/05/27 06:55:37;;;;;;;3.60;2.77;;;22.20;99.90;;;;;;5044871;28;20916;-72
2022/05/27 06:58:24;;;;;;;8.50;2.40;;;22.20;99.90;;;;;;5051768;28;20425;-74
2022/05/27 07:00:56;;;;;;;2.23;2.03;;;22.30;99.90;;;;;;5048903;28;20488;-71
2022/05/27 07:03:23;;;;;;;2.60;2.43;;;22.40;99.90;;;;;;5051150;28;20994;-73
2022/05/27 07:06:18;;;;;;;5.13;2.50;;;22.50;99.90;;;;;;5049875;28;20450;-74
2022/05/27 07:08:45;;;;;;;2.47;2.27;;;22.60;99.90;;;;;;5045402;28;20875;-75
2022/05/27 07:11:59;;;;;;;3.07;2.40;;;22.70;99.90;;;;;;5033405;28;20557;-75
2022/05/27 07:14:53;;;;;;;2.70;2.50;;;22.80;99.90;;;;;;5057335;28;20304;-75
2022/05/27 07:17:24;;;;;;;2.57;2.37;;;22.80;99.90;;;;;;5056396;28;20446;-73
2022/05/27 07:19:52;;;;;;;2.47;2.27;;;22.90;99.90;;;;;;5066358;28;20446;-72
2022/05/27 07:22:25;;;;;;;2.27;2.17;;;23.00;99.90;;;;;;5048397;28;21074;-75
2022/05/27 07:24:51;;;;;;;2.53;2.10;;;23.00;99.90;;;;;;5053651;28;20993;-74
2022/05/27 07:27:17;;;;;;;1.77;1.67;;;23.10;99.90;;;;;;5035349;28;20414;-72
2022/05/27 07:29:45;;;;;;;1.73;1.63;;;23.20;99.90;;;;;;5043150;28;20470;-74
2022/05/27 07:32:11;;;;;;;2.10;1.87;;;23.20;99.90;;;;;;5033944;28;20424;-74
2022/05/27 07:34:38;;;;;;;2.93;2.63;;;23.30;99.90;;;;;;5052343;28;20913;-72
2022/05/27 07:37:04;;;;;;;1.77;1.67;;;23.40;99.90;;;;;;5055366;28;20466;-72
2022/05/27 07:39:30;;;;;;;1.60;1.50;;;23.50;99.90;;;;;;5049885;28;20475;-72
2022/05/27 07:41:57;;;;;;;2.37;1.70;;;23.50;99.90;;;;;;5046040;28;20548;-72
2022/05/27 07:44:25;;;;;;;2.27;2.07;;;23.60;99.90;;;;;;5056065;28;21066;-71
2022/05/27 07:47:01;;;;;;;2.20;2.03;;;23.70;99.90;;;;;;5053583;28;20424;-74
2022/05/27 07:49:27;;;;;;;3.90;3.27;;;23.70;99.90;;;;;;5054368;28;20474;-72
2022/05/27 07:51:56;;;;;;;2.30;2.10;;;23.80;99.90;;;;;;5042377;28;20446;-74
2022/05/27 07:54:22;;;;;;;2.40;2.20;;;23.90;99.90;;;;;;5060440;28;20206;-75
2022/05/27 07:56:55;;;;;;;2.00;1.77;;;24.00;99.90;;;;;;5064923;28;20579;-73
2022/05/27 07:59:26;;;;;;;2.30;2.20;;;24.10;99.90;;;;;;5053505;28;20467;-74
2022/05/27 08:01:57;;;;;;;2.50;2.30;;;24.10;99.90;;;;;;5048001;28;20580;-71
2022/05/27 08:04:26;;;;;;;1.90;1.80;;;24.20;99.90;;;;;;5044421;28;20547;-73
2022/05/27 08:06:59;;;;;;;2.20;2.00;;;24.30;99.90;;;;;;5073601;28;20525;-74
2022/05/27 08:09:33;;;;;;;3.00;2.70;;;24.30;99.90;;;;;;5052492;28;20498;-71
2022/05/27 08:12:05;;;;;;;1.70;1.60;;;24.40;99.90;;;;;;5043026;28;20549;-73
2022/05/27 08:14:31;;;;;;;1.90;1.80;;;24.40;99.90;;;;;;5055397;28;20435;-73
2022/05/27 08:17:00;;;;;;;1.90;1.80;;;24.50;99.90;;;;;;5048858;28;20792;-74
2022/05/27 08:19:30;;;;;;;1.60;1.50;;;24.60;99.90;;;;;;5052808;28;20467;-73
2022/05/27 08:21:56;;;;;;;1.90;1.80;;;24.70;99.90;;;;;;5054301;28;20988;-71
2022/05/27 08:24:22;;;;;;;1.63;1.53;;;24.70;99.90;;;;;;5047124;28;20449;-72
2022/05/27 08:26:50;;;;;;;2.13;1.90;;;24.80;99.90;;;;;;5052359;28;20440;-71
2022/05/27 08:29:32;;;;;;;2.30;1.80;;;24.80;99.90;;;;;;5066451;28;20491;-73
2022/05/27 08:32:31;;;;;;;1.80;1.60;;;24.90;99.90;;;;;;5054349;28;20445;-71
2022/05/27 08:38:07;;;;;;;3.70;1.77;;;25.00;99.90;;;;;;5064536;28;20952;-69
2022/05/27 08:41:08;;;;;;;2.73;1.60;;;25.10;99.90;;;;;;5065816;28;20444;-71
2022/05/27 08:43:50;;;;;;;1.80;1.70;;;25.20;99.90;;;;;;5051271;28;20498;-68
2022/05/27 08:46:25;;;;;;;2.63;2.40;;;25.30;99.90;;;;;;5052338;28;20429;-68
2022/05/27 08:48:56;;;;;;;3.20;2.10;;;25.40;99.90;;;;;;5054164;28;20762;-67
2022/05/27 08:51:45;;;;;;;3.10;2.20;;;25.50;99.90;;;;;;5054427;28;20472;-68
2022/05/27 08:54:24;;;;;;;2.20;2.00;;;25.50;99.90;;;;;;5027813;28;20493;-67
2022/05/27 08:59:40;;;;;;;2.50;1.70;;;25.70;99.90;;;;;;5066422;28;20464;-69
2022/05/27 09:02:35;;;;;;;2.60;2.10;;;25.80;99.90;;;;;;5049896;28;20462;-73
2022/05/27 09:05:23;;;;;;;2.07;1.87;;;25.80;99.90;;;;;;5048575;28;20500;-68
2022/05/27 09:08:01;;;;;;;1.80;1.70;;;25.90;99.90;;;;;;5049488;28;20520;-68
2022/05/27 09:11:01;;;;;;;1.83;1.73;;;26.00;99.90;;;;;;5061518;28;20538;-68
2022/05/27 09:13:56;;;;;;;1.70;1.60;;;26.00;99.90;;;;;;5051311;28;20477;-68
2022/05/27 09:16:33;;;;;;;1.80;1.70;;;26.00;99.40;;;;;;5056634;28;20445;-68
2022/05/27 09:19:10;;;;;;;1.73;1.50;;;26.00;99.90;;;;;;5061883;28;20437;-68
2022/05/27 09:21:58;;;;;;;1.60;1.50;;;26.10;98.60;;;;;;5051620;28;20446;-71
2022/05/27 09:24:33;;;;;;;1.60;1.50;;;26.10;97.70;;;;;;5057969;28;20465;-67
2022/05/27 09:27:26;;;;;;;1.67;1.57;;;26.10;98.60;;;;;;5052470;28;20808;-69
2022/05/27 09:30:08;;;;;;;2.30;2.10;;;26.20;98.00;;;;;;5043818;28;20519;-72
2022/05/27 09:32:58;;;;;;;2.90;2.17;;;26.20;98.30;;;;;;5046677;28;20437;-71
2022/05/27 09:35:39;;;;;;;1.83;1.70;;;26.20;98.10;;;;;;5046689;28;20924;-66
2022/05/27 09:38:10;;;;;;;1.57;1.47;;;26.30;97.50;;;;;;5046495;28;20473;-65
2022/05/27 09:40:37;;;;;;;1.90;1.80;;;26.30;96.80;;;;;;5051662;28;20461;-68
2022/05/27 09:43:18;;;;;;;2.80;1.77;;;26.40;97.10;;;;;;5063759;28;20440;-68
2022/05/27 09:46:00;;;;;;;1.73;1.63;;;26.40;97.40;;;;;;5062535;28;20457;-69
2022/05/27 09:48:26;;;;;;;1.93;1.83;;;26.40;97.80;;;;;;5052598;28;20461;-67
2022/05/27 09:51:04;;;;;;;2.20;2.10;;;26.50;97.60;;;;;;5052724;28;21084;-68
2022/05/27 09:53:48;;;;;;;3.63;1.87;;;26.60;98.20;;;;;;5051824;28;20545;-67
2022/05/27 09:56:15;;;;;;;2.40;1.93;;;26.60;97.00;;;;;;5043172;28;20523;-69
2022/05/27 09:58:44;;;;;;;2.43;2.23;;;26.70;98.30;;;;;;5046829;28;20433;-69
2022/05/27 10:01:22;;;;;;;2.07;1.90;;;26.70;97.50;;;;;;5041302;28;20452;-67
2022/05/27 10:04:12;;;;;;;2.17;1.90;;;26.80;96.20;;;;;;5070366;28;20434;-66
2022/05/27 10:06:57;;;;;;;2.50;2.30;;;26.80;96.70;;;;;;5049775;28;20952;-69
2022/05/27 10:09:30;;;;;;;2.40;1.93;;;26.80;96.40;;;;;;5052845;28;20485;-69
2022/05/27 10:11:58;;;;;;;2.10;1.90;;;26.80;95.80;;;;;;5053926;28;20438;-66
2022/05/27 10:14:39;;;;;;;1.90;1.80;;;26.80;96.20;;;;;;5050049;28;20466;-66
2022/05/27 10:17:16;;;;;;;1.67;1.57;;;26.80;95.80;;;;;;5049327;28;20481;-69
2022/05/27 10:19:51;;;;;;;2.60;2.40;;;26.90;96.30;;;;;;5052167;28;20446;-66
2022/05/27 10:22:20;;;;;;;2.40;2.20;;;26.90;96.90;;;;;;5050415;28;20847;-69
2022/05/27 10:24:56;;;;;;;1.93;1.83;;;27.00;96.60;;;;;;5069201;28;20466;-66
2022/05/27 10:27:32;;;;;;;2.20;2.00;;;27.10;95.50;;;;;;5077612;28;20530;-69
2022/05/27 10:30:00;;;;;;;2.30;2.10;;;27.10;95.40;;;;;;5049837;28;20505;-69
2022/05/27 10:32:43;;;;;;;2.00;1.90;;;27.10;95.70;;;;;;5038965;28;20431;-66
2022/05/27 10:35:31;;;;;;;2.80;2.60;;;27.10;95.90;;;;;;5049676;28;20442;-67
2022/05/27 10:38:26;;;;;;;2.57;2.20;;;27.20;95.50;;;;;;5046149;28;20442;-67
2022/05/27 10:41:00;;;;;;;2.60;2.00;;;27.30;95.70;;;;;;5044099;28;20559;-68
2022/05/27 10:43:58;;;;;;;1.90;1.80;;;27.30;94.80;;;;;;5047734;28;20429;-68
2022/05/27 10:46:32;;;;;;;2.67;2.40;;;27.30;94.00;;;;;;5046778;28;20431;-69
2022/05/27 10:49:34;;;;;;;1.70;1.60;;;27.20;94.30;;;;;;5044713;28;20454;-68
2022/05/27 10:52:19;;;;;;;2.70;2.50;;;27.10;94.20;;;;;;5048843;28;20437;-70
2022/05/27 10:54:50;;;;;;;1.93;1.83;;;27.10;94.30;;;;;;5039618;28;20988;-68
2022/05/27 11:03:24;;;;;;;2.50;2.03;;;27.10;93.90;;;;;;5065966;28;20461;-67
2022/05/27 11:06:04;;;;;;;2.17;1.97;;;27.10;94.40;;;;;;5042865;28;20515;-69
2022/05/27 11:08:33;;;;;;;4.10;2.77;;;27.20;94.20;;;;;;5050480;28;20499;-67
2022/05/27 11:11:12;;;;;;;74.80;62.27;;;27.20;94.00;;;;;;5047074;28;20481;-67
2022/05/27 11:17:06;;;;;;;14.00;10.57;;;27.30;93.80;;;;;;5063126;28;20999;-70
2022/05/27 11:19:35;;;;;;;6.67;4.53;;;27.40;93.10;;;;;;5054625;28;20528;-69
2022/05/27 11:22:37;;;;;;;4.60;2.53;;;27.50;93.50;;;;;;5072366;28;20421;-69
2022/05/27 11:25:21;;;;;;;3.03;2.70;;;27.50;93.30;;;;;;5034363;28;20487;-67
2022/05/27 11:27:59;;;;;;;1.97;1.87;;;27.60;93.00;;;;;;5043268;28;20441;-69
2022/05/27 11:30:47;;;;;;;4.90;2.87;;;27.60;93.60;;;;;;5058767;28;20465;-69
2022/05/27 11:33:28;;;;;;;2.53;1.83;;;27.60;92.70;;;;;;5046909;28;20454;-67
2022/05/27 11:36:10;;;;;;;1.83;1.73;;;27.60;93.10;;;;;;5040456;28;20451;-65
2022/05/27 11:38:54;;;;;;;5.83;2.13;;;27.60;92.20;;;;;;5052584;28;20599;-65
2022/05/27 11:41:46;;;;;;;2.40;2.20;;;27.60;93.00;;;;;;5046505;28;20452;-66
2022/05/27 11:44:27;;;;;;;1.83;1.70;;;27.60;92.50;;;;;;5040184;28;20454;-69
2022/05/27 11:47:19;;;;;;;2.93;2.73;;;27.60;92.70;;;;;;5040835;28;20442;-70
2022/05/27 11:50:17;;;;;;;26.80;16.27;;;27.70;93.50;;;;;;5047370;28;20559;-67
2022/05/27 11:53:02;;;;;;;1.80;1.70;;;27.70;93.30;;;;;;5049011;28;20438;-67
2022/05/27 11:55:54;;;;;;;18.27;10.50;;;27.80;92.50;;;;;;5041019;28;20833;-69
2022/05/27 11:58:26;;;;;;;2.57;2.37;;;27.80;93.30;;;;;;5052141;28;20495;-67
2022/05/27 12:01:15;;;;;;;36.33;19.60;;;27.80;92.70;;;;;;5044975;28;20540;-69
2022/05/27 12:03:53;;;;;;;13.13;9.60;;;27.90;92.20;;;;;;4982479;28;20801;-67
2022/05/27 12:06:27;;;;;;;7.30;5.00;;;27.90;92.40;;;;;;5035637;28;20523;-67
2022/05/27 12:09:00;;;;;;;2.80;1.80;;;27.90;92.50;;;;;;5052686;28;20775;-68
2022/05/27 12:11:38;;;;;;;4.47;4.07;;;28.00;92.50;;;;;;5041593;28;20503;-67
2022/05/27 12:14:13;;;;;;;2.37;2.00;;;28.00;92.90;;;;;;5051296;28;20461;-70
2022/05/27 12:16:43;;;;;;;3.00;2.73;;;28.10;92.70;;;;;;5047740;28;20467;-67
2022/05/27 12:19:18;;;;;;;2.13;2.00;;;28.20;92.50;;;;;;5047391;28;20520;-69
2022/05/27 12:22:09;;;;;;;2.20;1.90;;;28.20;91.70;;;;;;5067542;28;20428;-70
2022/05/27 12:24:41;;;;;;;2.23;2.03;;;28.10;92.30;;;;;;5034682;28;20463;-67
2022/05/27 12:27:19;;;;;;;2.73;2.53;;;28.10;92.20;;;;;;5051100;28;20441;-69
2022/05/27 12:30:11;;;;;;;2.27;2.07;;;28.20;92.30;;;;;;5041530;28;20493;-68
2022/05/27 12:32:44;;;;;;;2.03;1.93;;;28.10;91.70;;;;;;5046886;28;20441;-69
2022/05/27 12:35:37;;;;;;;1.80;1.70;;;28.10;91.60;;;;;;5049947;28;20864;-68
2022/05/27 12:38:22;;;;;;;2.30;2.13;;;28.10;91.90;;;;;;5047295;28;20442;-66
2022/05/27 12:40:56;;;;;;;5.80;2.50;;;28.10;92.10;;;;;;5039141;28;20463;-69
2022/05/27 12:43:29;;;;;;;11.20;9.63;;;28.10;91.80;;;;;;5050287;28;20537;-66
2022/05/27 12:46:01;;;;;;;4.80;3.77;;;28.10;92.00;;;;;;5051840;28;20441;-68
2022/05/27 12:48:49;;;;;;;9.47;6.27;;;28.10;92.30;;;;;;5054527;28;20430;-70
2022/05/27 12:51:16;;;;;;;13.40;9.50;;;28.00;91.90;;;;;;5052399;28;20481;-67
2022/05/27 12:53:43;;;;;;;6.10;3.60;;;28.00;92.00;;;;;;5051466;28;20503;-69
2022/05/27 13:02:50;;;;;;;2.20;2.00;;;27.90;92.10;;;;;;5065363;28;20442;-69
2022/05/27 13:05:52;;;;;;;1.80;1.70;;;27.90;91.80;;;;;;5055009;28;20472;-66
2022/05/27 13:08:20;;;;;;;1.87;1.77;;;27.90;91.70;;;;;;5055702;28;20421;-68
2022/05/27 13:10:48;;;;;;;4.73;3.23;;;28.00;92.70;;;;;;5071021;28;20903;-66
2022/05/27 13:13:18;;;;;;;3.90;2.40;;;28.10;92.70;;;;;;5065555;28;20425;-67
2022/05/27 13:15:53;;;;;;;2.50;2.30;;;28.10;92.00;;;;;;5054826;28;20470;-67
2022/05/27 13:18:31;;;;;;;7.67;6.27;;;28.10;91.50;;;;;;5052980;28;20439;-69
2022/05/27 13:21:21;;;;;;;9.03;7.20;;;28.10;91.70;;;;;;5076350;28;20550;-69
2022/05/27 13:24:01;;;;;;;19.67;12.93;;;28.10;91.20;;;;;;5073283;28;20413;-67
2022/05/27 13:26:41;;;;;;;6.00;5.43;;;28.00;91.40;;;;;;5073762;28;20842;-69
2022/05/27 13:29:36;;;;;;;2.33;2.00;;;28.10;91.80;;;;;;5066297;28;20454;-68
2022/05/27 13:32:10;;;;;;;6.30;4.50;;;28.10;92.60;;;;;;5051560;28;20435;-68
2022/05/27 13:34:57;;;;;;;7.87;5.57;;;28.10;92.30;;;;;;5051899;28;20490;-68
2022/05/27 13:37:56;;;;;;;9.03;5.30;;;28.20;92.20;;;;;;5054181;28;20452;-68
2022/05/27 13:40:30;;;;;;;6.33;4.03;;;28.30;92.40;;;;;;5034027;28;20538;-68
2022/05/27 13:43:02;;;;;;;6.57;5.93;;;28.30;92.20;;;;;;5052986;28;20444;-68
2022/05/27 13:45:38;;;;;;;11.50;6.17;;;28.30;91.80;;;;;;5047891;28;20480;-67
2022/05/27 13:48:14;;;;;;;8.23;7.43;;;28.30;91.70;;;;;;5062497;28;20447;-67
2022/05/27 13:50:42;;;;;;;5.63;3.90;;;28.40;91.30;;;;;;5055734;28;20909;-67
2022/05/27 13:53:28;;;;;;;6.27;4.70;;;28.40;92.20;;;;;;5054005;28;21238;-67
2022/05/27 13:56:12;;;;;;;5.27;4.27;;;28.50;92.10;;;;;;5053164;28;20435;-69
2022/05/27 13:58:47;;;;;;;20.20;18.33;;;28.50;91.50;;;;;;5052891;28;20423;-67
2022/05/27 14:01:14;;;;;;;5.63;5.10;;;28.50;91.60;;;;;;5045330;28;20441;-70
2022/05/27 14:03:50;;;;;;;6.10;2.93;;;28.50;91.60;;;;;;5052569;28;20523;-67